sensor_id;sensor_type;location;lat;lon;timestamp;pressure;altitude;pressure_sealevel;temperature
77728;BMP280;68312;53.502;10.030;2023-04-24T00:00:38;100256.88;;;11.63
77728;BMP280;68312;53.502;10.030;2023-04-24T00:03:03;100265.09;;;11.62
77728;BMP280;68312;53.502;10.030;2023-04-24T00:05:29;100261.28;;;11.59
77728;BMP280;68312;53.502;10.030;2023-04-24T00:07:54;100257.13;;;11.59
77728;BMP280;68312;53.502;10.030;2023-04-24T00:10:20;100246.16;;;11.57
77728;BMP280;68312;53.502;10.030;2023-04-24T00:12:45;100248.38;;;11.55
77728;BMP280;68312;53.502;10.030;2023-04-24T00:15:12;100247.25;;;11.56
77728;BMP280;68312;53.502;10.030;2023-04-24T00:17:38;100232.59;;;11.55
77728;BMP280;68312;53.502;10.030;2023-04-24T00:20:05;100227.31;;;11.55
77728;BMP280;68312;53.502;10.030;2023-04-24T00:22:31;100230.28;;;11.53
77728;BMP280;68312;53.502;10.030;2023-04-24T00:24:56;100235.09;;;11.51
77728;BMP280;68312;53.502;10.030;2023-04-24T00:27:22;100235.44;;;11.50
77728;BMP280;68312;53.502;10.030;2023-04-24T00:29:48;100239.91;;;11.49
77728;BMP280;68312;53.502;10.030;2023-04-24T00:32:14;100235.34;;;11.46
77728;BMP280;68312;53.502;10.030;2023-04-24T00:34:40;100217.50;;;11.40
77728;BMP280;68312;53.502;10.030;2023-04-24T00:37:06;100213.22;;;11.35
77728;BMP280;68312;53.502;10.030;2023-04-24T00:39:32;100221.66;;;11.29
77728;BMP280;68312;53.502;10.030;2023-04-24T00:41:57;100221.75;;;11.21
77728;BMP280;68312;53.502;10.030;2023-04-24T00:44:23;100217.19;;;11.18
77728;BMP280;68312;53.502;10.030;2023-04-24T00:46:49;100217.38;;;11.13
77728;BMP280;68312;53.502;10.030;2023-04-24T00:49:15;100211.16;;;11.05
77728;BMP280;68312;53.502;10.030;2023-04-24T00:51:41;100213.66;;;11.02
77728;BMP280;68312;53.502;10.030;2023-04-24T00:54:06;100218.94;;;11.02
77728;BMP280;68312;53.502;10.030;2023-04-24T00:56:32;100212.00;;;10.98
77728;BMP280;68312;53.502;10.030;2023-04-24T00:58:57;100214.31;;;10.99
77728;BMP280;68312;53.502;10.030;2023-04-24T01:01:24;100222.41;;;10.94
77728;BMP280;68312;53.502;10.030;2023-04-24T01:03:51;100223.06;;;10.91
77728;BMP280;68312;53.502;10.030;2023-04-24T01:06:18;100220.88;;;10.93
77728;BMP280;68312;53.502;10.030;2023-04-24T01:08:46;100216.16;;;10.99
77728;BMP280;68312;53.502;10.030;2023-04-24T01:11:14;100211.59;;;10.96
77728;BMP280;68312;53.502;10.030;2023-04-24T01:13:39;100215.78;;;10.97
77728;BMP280;68312;53.502;10.030;2023-04-24T01:16:05;100210.06;;;10.95
77728;BMP280;68312;53.502;10.030;2023-04-24T01:18:30;100229.84;;;10.92
77728;BMP280;68312;53.502;10.030;2023-04-24T01:21:03;100220.69;;;10.86
77728;BMP280;68312;53.502;10.030;2023-04-24T01:23:29;100212.66;;;10.83
77728;BMP280;68312;53.502;10.030;2023-04-24T01:25:54;100217.03;;;10.79
77728;BMP280;68312;53.502;10.030;2023-04-24T01:28:20;100215.63;;;10.81
77728;BMP280;68312;53.502;10.030;2023-04-24T01:30:47;100208.84;;;10.80
77728;BMP280;68312;53.502;10.030;2023-04-24T01:33:13;100210.78;;;10.83
77728;BMP280;68312;53.502;10.030;2023-04-24T01:35:39;100209.38;;;10.86
77728;BMP280;68312;53.502;10.030;2023-04-24T01:38:05;100209.28;;;10.94
77728;BMP280;68312;53.502;10.030;2023-04-24T01:40:32;100210.81;;;10.95
77728;BMP280;68312;53.502;10.030;2023-04-24T01:42:58;100214.31;;;10.99
77728;BMP280;68312;53.502;10.030;2023-04-24T01:45:24;100207.34;;;11.03
77728;BMP280;68312;53.502;10.030;2023-04-24T01:47:50;100203.25;;;11.05
77728;BMP280;68312;53.502;10.030;2023-04-24T01:50:15;100202.38;;;11.13
77728;BMP280;68312;53.502;10.030;2023-04-24T01:52:42;100190.34;;;11.12
77728;BMP280;68312;53.502;10.030;2023-04-24T01:55:08;100181.44;;;11.05
77728;BMP280;68312;53.502;10.030;2023-04-24T01:57:35;100179.97;;;11.04
77728;BMP280;68312;53.502;10.030;2023-04-24T02:00:02;100191.75;;;10.98
77728;BMP280;68312;53.502;10.030;2023-04-24T02:02:31;100182.69;;;10.96
77728;BMP280;68312;53.502;10.030;2023-04-24T02:04:57;100174.69;;;10.92
77728;BMP280;68312;53.502;10.030;2023-04-24T02:07:22;100184.75;;;10.90
77728;BMP280;68312;53.502;10.030;2023-04-24T02:09:48;100176.78;;;10.87
77728;BMP280;68312;53.502;10.030;2023-04-24T02:12:15;100171.75;;;10.82
77728;BMP280;68312;53.502;10.030;2023-04-24T02:14:41;100168.34;;;10.70
77728;BMP280;68312;53.502;10.030;2023-04-24T02:17:06;100188.25;;;10.59
77728;BMP280;68312;53.502;10.030;2023-04-24T02:19:31;100178.91;;;10.49
77728;BMP280;68312;53.502;10.030;2023-04-24T02:21:57;100176.38;;;10.41
77728;BMP280;68312;53.502;10.030;2023-04-24T02:24:22;100180.66;;;10.34
77728;BMP280;68312;53.502;10.030;2023-04-24T02:26:48;100181.94;;;10.28
77728;BMP280;68312;53.502;10.030;2023-04-24T02:29:13;100180.81;;;10.29
77728;BMP280;68312;53.502;10.030;2023-04-24T02:31:39;100186.44;;;10.27
77728;BMP280;68312;53.502;10.030;2023-04-24T02:34:04;100184.75;;;10.23
77728;BMP280;68312;53.502;10.030;2023-04-24T02:36:30;100182.34;;;10.18
77728;BMP280;68312;53.502;10.030;2023-04-24T02:38:55;100188.34;;;10.18
77728;BMP280;68312;53.502;10.030;2023-04-24T02:41:20;100179.25;;;10.16
77728;BMP280;68312;53.502;10.030;2023-04-24T02:43:46;100173.25;;;10.15
77728;BMP280;68312;53.502;10.030;2023-04-24T02:46:11;100176.19;;;10.14
77728;BMP280;68312;53.502;10.030;2023-04-24T02:48:37;100174.88;;;10.08
77728;BMP280;68312;53.502;10.030;2023-04-24T02:51:03;100183.06;;;10.07
77728;BMP280;68312;53.502;10.030;2023-04-24T02:53:29;100176.72;;;10.08
77728;BMP280;68312;53.502;10.030;2023-04-24T02:55:54;100175.00;;;10.12
77728;BMP280;68312;53.502;10.030;2023-04-24T02:58:19;100172.16;;;10.16
77728;BMP280;68312;53.502;10.030;2023-04-24T03:00:45;100173.47;;;10.22
77728;BMP280;68312;53.502;10.030;2023-04-24T03:03:11;100172.59;;;10.18
77728;BMP280;68312;53.502;10.030;2023-04-24T03:05:37;100166.38;;;10.11
77728;BMP280;68312;53.502;10.030;2023-04-24T03:08:02;100169.41;;;10.13
77728;BMP280;68312;53.502;10.030;2023-04-24T03:10:27;100164.16;;;10.13
77728;BMP280;68312;53.502;10.030;2023-04-24T03:12:53;100155.56;;;10.24
77728;BMP280;68312;53.502;10.030;2023-04-24T03:15:18;100165.22;;;10.44
77728;BMP280;68312;53.502;10.030;2023-04-24T03:17:44;100144.91;;;10.53
77728;BMP280;68312;53.502;10.030;2023-04-24T03:20:09;100148.63;;;10.52
77728;BMP280;68312;53.502;10.030;2023-04-24T03:22:35;100162.09;;;10.50
77728;BMP280;68312;53.502;10.030;2023-04-24T03:25:01;100159.66;;;10.34
77728;BMP280;68312;53.502;10.030;2023-04-24T03:27:26;100161.94;;;10.35
77728;BMP280;68312;53.502;10.030;2023-04-24T03:29:52;100163.78;;;10.23
77728;BMP280;68312;53.502;10.030;2023-04-24T03:32:17;100165.22;;;10.32
77728;BMP280;68312;53.502;10.030;2023-04-24T03:34:43;100166.63;;;10.30
77728;BMP280;68312;53.502;10.030;2023-04-24T03:37:08;100163.72;;;10.43
77728;BMP280;68312;53.502;10.030;2023-04-24T03:39:34;100162.94;;;10.43
77728;BMP280;68312;53.502;10.030;2023-04-24T03:41:59;100161.94;;;10.35
77728;BMP280;68312;53.502;10.030;2023-04-24T03:44:25;100159.31;;;10.35
77728;BMP280;68312;53.502;10.030;2023-04-24T03:46:50;100158.00;;;10.29
77728;BMP280;68312;53.502;10.030;2023-04-24T03:49:16;100160.28;;;10.19
77728;BMP280;68312;53.502;10.030;2023-04-24T03:51:41;100165.06;;;10.17
77728;BMP280;68312;53.502;10.030;2023-04-24T03:54:07;100164.50;;;10.12
77728;BMP280;68312;53.502;10.030;2023-04-24T03:56:32;100163.22;;;10.17
77728;BMP280;68312;53.502;10.030;2023-04-24T03:58:57;100160.78;;;10.13
77728;BMP280;68312;53.502;10.030;2023-04-24T04:01:23;100157.28;;;10.09
77728;BMP280;68312;53.502;10.030;2023-04-24T04:03:48;100154.97;;;10.07
77728;BMP280;68312;53.502;10.030;2023-04-24T04:06:14;100152.56;;;10.02
77728;BMP280;68312;53.502;10.030;2023-04-24T04:08:39;100156.31;;;9.93
77728;BMP280;68312;53.502;10.030;2023-04-24T04:11:04;100159.16;;;9.88
77728;BMP280;68312;53.502;10.030;2023-04-24T04:13:30;100163.81;;;9.83
77728;BMP280;68312;53.502;10.030;2023-04-24T04:15:55;100160.25;;;9.87
77728;BMP280;68312;53.502;10.030;2023-04-24T04:18:21;100146.84;;;9.80
77728;BMP280;68312;53.502;10.030;2023-04-24T04:20:46;100147.84;;;9.96
77728;BMP280;68312;53.502;10.030;2023-04-24T04:23:12;100157.28;;;9.88
77728;BMP280;68312;53.502;10.030;2023-04-24T04:25:37;100156.72;;;10.03
77728;BMP280;68312;53.502;10.030;2023-04-24T04:28:03;100159.81;;;10.17
77728;BMP280;68312;53.502;10.030;2023-04-24T04:30:28;100149.41;;;10.09
77728;BMP280;68312;53.502;10.030;2023-04-24T04:32:54;100150.72;;;10.14
77728;BMP280;68312;53.502;10.030;2023-04-24T04:35:19;100155.72;;;10.28
77728;BMP280;68312;53.502;10.030;2023-04-24T04:37:45;100158.94;;;10.25
77728;BMP280;68312;53.502;10.030;2023-04-24T04:40:10;100159.91;;;10.20
77728;BMP280;68312;53.502;10.030;2023-04-24T04:42:36;100166.47;;;10.14
77728;BMP280;68312;53.502;10.030;2023-04-24T04:45:01;100167.56;;;10.13
77728;BMP280;68312;53.502;10.030;2023-04-24T04:47:27;100168.75;;;10.16
77728;BMP280;68312;53.502;10.030;2023-04-24T04:49:53;100174.06;;;10.28
77728;BMP280;68312;53.502;10.030;2023-04-24T04:52:19;100173.84;;;10.33
77728;BMP280;68312;53.502;10.030;2023-04-24T04:54:44;100172.44;;;10.35
77728;BMP280;68312;53.502;10.030;2023-04-24T04:57:10;100176.78;;;10.31
77728;BMP280;68312;53.502;10.030;2023-04-24T04:59:35;100172.84;;;10.37
77728;BMP280;68312;53.502;10.030;2023-04-24T05:02:01;100174.59;;;10.33
77728;BMP280;68312;53.502;10.030;2023-04-24T05:04:26;100166.53;;;10.38
77728;BMP280;68312;53.502;10.030;2023-04-24T05:06:52;100168.28;;;10.34
77728;BMP280;68312;53.502;10.030;2023-04-24T05:09:18;100168.75;;;10.36
77728;BMP280;68312;53.502;10.030;2023-04-24T05:11:43;100170.16;;;10.45
77728;BMP280;68312;53.502;10.030;2023-04-24T05:14:09;100169.84;;;10.47
77728;BMP280;68312;53.502;10.030;2023-04-24T05:16:34;100165.91;;;10.53
77728;BMP280;68312;53.502;10.030;2023-04-24T05:19:00;100164.81;;;10.54
77728;BMP280;68312;53.502;10.030;2023-04-24T05:21:25;100161.00;;;10.63
77728;BMP280;68312;53.502;10.030;2023-04-24T05:23:51;100165.59;;;10.66
77728;BMP280;68312;53.502;10.030;2023-04-24T05:26:16;100166.78;;;10.69
77728;BMP280;68312;53.502;10.030;2023-04-24T05:28:42;100164.50;;;10.79
77728;BMP280;68312;53.502;10.030;2023-04-24T05:31:07;100159.72;;;10.81
77728;BMP280;68312;53.502;10.030;2023-04-24T05:33:32;100162.88;;;10.86
77728;BMP280;68312;53.502;10.030;2023-04-24T05:35:58;100164.50;;;10.91
77728;BMP280;68312;53.502;10.030;2023-04-24T05:38:23;100161.22;;;11.05
77728;BMP280;68312;53.502;10.030;2023-04-24T05:40:49;100174.16;;;11.10
77728;BMP280;68312;53.502;10.030;2023-04-24T05:43:14;100172.50;;;11.06
77728;BMP280;68312;53.502;10.030;2023-04-24T05:45:40;100167.44;;;11.13
77728;BMP280;68312;53.502;10.030;2023-04-24T05:48:05;100159.56;;;11.25
77728;BMP280;68312;53.502;10.030;2023-04-24T05:50:32;100167.75;;;11.35
77728;BMP280;68312;53.502;10.030;2023-04-24T05:52:57;100158.19;;;11.42
77728;BMP280;68312;53.502;10.030;2023-04-24T05:55:24;100170.56;;;11.42
77728;BMP280;68312;53.502;10.030;2023-04-24T05:57:50;100164.03;;;11.48
77728;BMP280;68312;53.502;10.030;2023-04-24T06:00:15;100162.13;;;11.60
77728;BMP280;68312;53.502;10.030;2023-04-24T06:02:41;100168.13;;;11.60
77728;BMP280;68312;53.502;10.030;2023-04-24T06:05:07;100172.84;;;11.67
77728;BMP280;68312;53.502;10.030;2023-04-24T06:07:33;100168.88;;;11.73
77728;BMP280;68312;53.502;10.030;2023-04-24T06:09:58;100165.75;;;11.83
77728;BMP280;68312;53.502;10.030;2023-04-24T06:12:25;100171.19;;;11.89
77728;BMP280;68312;53.502;10.030;2023-04-24T06:14:51;100177.53;;;12.00
77728;BMP280;68312;53.502;10.030;2023-04-24T06:17:16;100174.81;;;12.12
77728;BMP280;68312;53.502;10.030;2023-04-24T06:19:42;100170.41;;;12.16
77728;BMP280;68312;53.502;10.030;2023-04-24T06:22:07;100170.03;;;12.29
77728;BMP280;68312;53.502;10.030;2023-04-24T06:24:34;100162.84;;;12.30
77728;BMP280;68312;53.502;10.030;2023-04-24T06:26:59;100172.25;;;12.43
77728;BMP280;68312;53.502;10.030;2023-04-24T06:29:25;100158.72;;;12.44
77728;BMP280;68312;53.502;10.030;2023-04-24T06:31:50;100175.00;;;12.49
77728;BMP280;68312;53.502;10.030;2023-04-24T06:34:16;100173.41;;;12.60
77728;BMP280;68312;53.502;10.030;2023-04-24T06:36:41;100171.63;;;12.64
77728;BMP280;68312;53.502;10.030;2023-04-24T06:39:07;100180.94;;;12.77
77728;BMP280;68312;53.502;10.030;2023-04-24T06:41:32;100169.72;;;12.95
77728;BMP280;68312;53.502;10.030;2023-04-24T06:43:57;100167.69;;;12.89
77728;BMP280;68312;53.502;10.030;2023-04-24T06:46:23;100162.94;;;12.79
77728;BMP280;68312;53.502;10.030;2023-04-24T06:48:49;100166.06;;;13.00
77728;BMP280;68312;53.502;10.030;2023-04-24T06:51:15;100176.75;;;13.06
77728;BMP280;68312;53.502;10.030;2023-04-24T06:53:40;100165.09;;;13.07
77728;BMP280;68312;53.502;10.030;2023-04-24T06:56:06;100168.78;;;13.22
77728;BMP280;68312;53.502;10.030;2023-04-24T06:58:31;100172.75;;;13.12
77728;BMP280;68312;53.502;10.030;2023-04-24T07:00:57;100182.19;;;13.32
77728;BMP280;68312;53.502;10.030;2023-04-24T07:03:22;100174.25;;;13.47
77728;BMP280;68312;53.502;10.030;2023-04-24T07:05:48;100174.66;;;13.49
77728;BMP280;68312;53.502;10.030;2023-04-24T07:08:13;100182.22;;;13.51
77728;BMP280;68312;53.502;10.030;2023-04-24T07:10:39;100175.69;;;13.45
77728;BMP280;68312;53.502;10.030;2023-04-24T07:13:04;100165.56;;;13.47
77728;BMP280;68312;53.502;10.030;2023-04-24T07:15:30;100179.25;;;13.52
77728;BMP280;68312;53.502;10.030;2023-04-24T07:17:55;100166.72;;;13.68
77728;BMP280;68312;53.502;10.030;2023-04-24T07:20:21;100172.72;;;13.65
77728;BMP280;68312;53.502;10.030;2023-04-24T07:22:46;100166.75;;;13.49
77728;BMP280;68312;53.502;10.030;2023-04-24T07:25:12;100173.66;;;13.94
77728;BMP280;68312;53.502;10.030;2023-04-24T07:27:37;100177.34;;;14.56
77728;BMP280;68312;53.502;10.030;2023-04-24T07:30:04;100183.63;;;14.96
77728;BMP280;68312;53.502;10.030;2023-04-24T07:32:30;100188.50;;;14.94
77728;BMP280;68312;53.502;10.030;2023-04-24T07:34:55;100182.50;;;14.71
77728;BMP280;68312;53.502;10.030;2023-04-24T07:37:21;100189.81;;;15.07
77728;BMP280;68312;53.502;10.030;2023-04-24T07:39:48;100192.81;;;15.05
77728;BMP280;68312;53.502;10.030;2023-04-24T07:42:13;100199.97;;;15.05
77728;BMP280;68312;53.502;10.030;2023-04-24T07:44:38;100196.41;;;14.94
77728;BMP280;68312;53.502;10.030;2023-04-24T07:47:04;100203.69;;;14.27
77728;BMP280;68312;53.502;10.030;2023-04-24T07:49:30;100197.09;;;13.77
77728;BMP280;68312;53.502;10.030;2023-04-24T07:51:55;100203.34;;;13.69
77728;BMP280;68312;53.502;10.030;2023-04-24T07:54:20;100216.53;;;14.07
77728;BMP280;68312;53.502;10.030;2023-04-24T07:56:46;100206.13;;;14.61
77728;BMP280;68312;53.502;10.030;2023-04-24T07:59:13;100207.41;;;14.70
77728;BMP280;68312;53.502;10.030;2023-04-24T08:01:38;100189.22;;;14.43
77728;BMP280;68312;53.502;10.030;2023-04-24T08:04:04;100204.41;;;14.50
77728;BMP280;68312;53.502;10.030;2023-04-24T08:06:29;100193.69;;;14.62
77728;BMP280;68312;53.502;10.030;2023-04-24T08:08:55;100210.44;;;14.47
77728;BMP280;68312;53.502;10.030;2023-04-24T08:11:21;100208.66;;;14.32
77728;BMP280;68312;53.502;10.030;2023-04-24T08:13:47;100217.34;;;14.11
77728;BMP280;68312;53.502;10.030;2023-04-24T08:16:12;100218.72;;;14.05
77728;BMP280;68312;53.502;10.030;2023-04-24T08:18:38;100227.41;;;14.05
77728;BMP280;68312;53.502;10.030;2023-04-24T08:21:04;100220.09;;;13.77
77728;BMP280;68312;53.502;10.030;2023-04-24T08:23:29;100225.53;;;13.50
77728;BMP280;68312;53.502;10.030;2023-04-24T08:25:55;100229.44;;;13.37
77728;BMP280;68312;53.502;10.030;2023-04-24T08:28:21;100235.59;;;13.44
77728;BMP280;68312;53.502;10.030;2023-04-24T08:30:47;100239.41;;;13.47
77728;BMP280;68312;53.502;10.030;2023-04-24T08:33:13;100241.91;;;13.40
77728;BMP280;68312;53.502;10.030;2023-04-24T08:35:39;100236.75;;;13.28
77728;BMP280;68312;53.502;10.030;2023-04-24T08:38:05;100259.31;;;13.10
77728;BMP280;68312;53.502;10.030;2023-04-24T08:40:33;100253.53;;;13.05
77728;BMP280;68312;53.502;10.030;2023-04-24T08:43:00;100242.91;;;13.17
77728;BMP280;68312;53.502;10.030;2023-04-24T08:45:26;100237.34;;;13.37
77728;BMP280;68312;53.502;10.030;2023-04-24T08:47:55;100241.22;;;13.43
77728;BMP280;68312;53.502;10.030;2023-04-24T08:50:22;100238.41;;;13.70
77728;BMP280;68312;53.502;10.030;2023-04-24T08:52:51;100248.19;;;13.69
77728;BMP280;68312;53.502;10.030;2023-04-24T08:55:17;100245.75;;;13.80
77728;BMP280;68312;53.502;10.030;2023-04-24T08:57:42;100245.75;;;13.80
77728;BMP280;68312;53.502;10.030;2023-04-24T09:00:11;100241.28;;;14.21
77728;BMP280;68312;53.502;10.030;2023-04-24T09:02:41;100237.19;;;14.45
77728;BMP280;68312;53.502;10.030;2023-04-24T09:05:08;100241.88;;;14.33
77728;BMP280;68312;53.502;10.030;2023-04-24T09:07:35;100238.72;;;14.06
77728;BMP280;68312;53.502;10.030;2023-04-24T09:10:04;100244.78;;;13.69
77728;BMP280;68312;53.502;10.030;2023-04-24T09:12:34;100250.94;;;13.39
77728;BMP280;68312;53.502;10.030;2023-04-24T09:15:00;100253.97;;;13.22
77728;BMP280;68312;53.502;10.030;2023-04-24T09:17:27;100257.69;;;13.21
77728;BMP280;68312;53.502;10.030;2023-04-24T09:19:53;100256.91;;;13.21
77728;BMP280;68312;53.502;10.030;2023-04-24T09:22:18;100265.16;;;13.34
77728;BMP280;68312;53.502;10.030;2023-04-24T09:24:45;100257.06;;;13.43
77728;BMP280;68312;53.502;10.030;2023-04-24T09:27:11;100255.44;;;13.38
77728;BMP280;68312;53.502;10.030;2023-04-24T09:29:37;100256.78;;;13.48
77728;BMP280;68312;53.502;10.030;2023-04-24T09:32:18;100254.31;;;13.55
77728;BMP280;68312;53.502;10.030;2023-04-24T09:34:46;100255.44;;;13.54
77728;BMP280;68312;53.502;10.030;2023-04-24T09:37:27;100254.38;;;13.58
77728;BMP280;68312;53.502;10.030;2023-04-24T09:40:19;100260.19;;;13.48
77728;BMP280;68312;53.502;10.030;2023-04-24T09:42:56;100260.66;;;13.35
77728;BMP280;68312;53.502;10.030;2023-04-24T09:45:27;100268.56;;;13.35
77728;BMP280;68312;53.502;10.030;2023-04-24T09:48:00;100266.25;;;13.33
77728;BMP280;68312;53.502;10.030;2023-04-24T09:50:26;100259.47;;;13.32
77728;BMP280;68312;53.502;10.030;2023-04-24T09:53:01;100259.47;;;13.32
77728;BMP280;68312;53.502;10.030;2023-04-24T09:55:28;100259.00;;;13.46
77728;BMP280;68312;53.502;10.030;2023-04-24T09:57:58;100267.31;;;14.00
77728;BMP280;68312;53.502;10.030;2023-04-24T10:00:28;100257.22;;;14.24
77728;BMP280;68312;53.502;10.030;2023-04-24T10:03:04;100261.19;;;14.37
77728;BMP280;68312;53.502;10.030;2023-04-24T10:05:35;100255.06;;;14.30
77728;BMP280;68312;53.502;10.030;2023-04-24T10:08:07;100264.13;;;13.91
77728;BMP280;68312;53.502;10.030;2023-04-24T10:10:41;100269.63;;;13.68
77728;BMP280;68312;53.502;10.030;2023-04-24T10:13:10;100262.44;;;13.65
77728;BMP280;68312;53.502;10.030;2023-04-24T10:15:38;100272.22;;;13.64
77728;BMP280;68312;53.502;10.030;2023-04-24T10:18:07;100268.75;;;13.60
77728;BMP280;68312;53.502;10.030;2023-04-24T10:20:35;100268.22;;;13.70
77728;BMP280;68312;53.502;10.030;2023-04-24T10:23:03;100276.16;;;13.55
77728;BMP280;68312;53.502;10.030;2023-04-24T10:25:31;100279.78;;;13.47
77728;BMP280;68312;53.502;10.030;2023-04-24T10:28:00;100274.09;;;13.30
77728;BMP280;68312;53.502;10.030;2023-04-24T10:30:28;100274.44;;;13.13
77728;BMP280;68312;53.502;10.030;2023-04-24T10:33:01;100276.81;;;12.88
77728;BMP280;68312;53.502;10.030;2023-04-24T10:35:32;100291.31;;;12.78
77728;BMP280;68312;53.502;10.030;2023-04-24T10:38:12;100284.75;;;12.73
77728;BMP280;68312;53.502;10.030;2023-04-24T10:40:42;100286.44;;;12.65
77728;BMP280;68312;53.502;10.030;2023-04-24T10:43:08;100289.31;;;12.75
77728;BMP280;68312;53.502;10.030;2023-04-24T10:45:34;100290.00;;;12.88
77728;BMP280;68312;53.502;10.030;2023-04-24T10:48:17;100293.31;;;13.15
77728;BMP280;68312;53.502;10.030;2023-04-24T10:50:52;100270.03;;;13.51
77728;BMP280;68312;53.502;10.030;2023-04-24T10:53:20;100287.22;;;14.16
77728;BMP280;68312;53.502;10.030;2023-04-24T10:55:57;100266.56;;;14.63
77728;BMP280;68312;53.502;10.030;2023-04-24T10:58:44;100272.28;;;15.12
77728;BMP280;68312;53.502;10.030;2023-04-24T11:01:28;100274.84;;;15.34
77728;BMP280;68312;53.502;10.030;2023-04-24T11:04:01;100270.16;;;15.50
77728;BMP280;68312;53.502;10.030;2023-04-24T11:06:33;100271.63;;;15.77
77728;BMP280;68312;53.502;10.030;2023-04-24T11:09:09;100268.16;;;15.73
77728;BMP280;68312;53.502;10.030;2023-04-24T11:11:36;100262.91;;;15.44
77728;BMP280;68312;53.502;10.030;2023-04-24T11:14:05;100272.69;;;15.72
77728;BMP280;68312;53.502;10.030;2023-04-24T11:16:39;100263.25;;;15.71
77728;BMP280;68312;53.502;10.030;2023-04-24T11:27:05;100259.59;;;14.29
77728;BMP280;68312;53.502;10.030;2023-04-24T11:29:48;100271.66;;;14.30
77728;BMP280;68312;53.502;10.030;2023-04-24T11:35:22;100259.06;;;14.90
77728;BMP280;68312;53.502;10.030;2023-04-24T11:37:49;100265.09;;;14.65
77728;BMP280;68312;53.502;10.030;2023-04-24T11:40:20;100267.22;;;14.78
77728;BMP280;68312;53.502;10.030;2023-04-24T11:42:48;100269.38;;;14.73
77728;BMP280;68312;53.502;10.030;2023-04-24T11:45:27;100267.53;;;14.73
77728;BMP280;68312;53.502;10.030;2023-04-24T11:47:55;100265.38;;;14.60
77728;BMP280;68312;53.502;10.030;2023-04-24T11:50:23;100276.03;;;14.64
77728;BMP280;68312;53.502;10.030;2023-04-24T11:52:50;100263.19;;;14.43
77728;BMP280;68312;53.502;10.030;2023-04-24T11:57:53;100274.03;;;14.57
77728;BMP280;68312;53.502;10.030;2023-04-24T12:03:10;100264.91;;;14.55
77728;BMP280;68312;53.502;10.030;2023-04-24T12:05:37;100256.16;;;14.98
77728;BMP280;68312;53.502;10.030;2023-04-24T12:08:04;100274.44;;;15.07
77728;BMP280;68312;53.502;10.030;2023-04-24T12:10:31;100263.50;;;15.08
77728;BMP280;68312;53.502;10.030;2023-04-24T12:12:59;100265.66;;;14.99
77728;BMP280;68312;53.502;10.030;2023-04-24T12:15:25;100262.94;;;14.96
77728;BMP280;68312;53.502;10.030;2023-04-24T12:17:53;100274.63;;;14.70
77728;BMP280;68312;53.502;10.030;2023-04-24T12:20:30;100272.00;;;14.73
77728;BMP280;68312;53.502;10.030;2023-04-24T12:22:59;100278.69;;;14.64
77728;BMP280;68312;53.502;10.030;2023-04-24T12:25:30;100274.06;;;14.39
77728;BMP280;68312;53.502;10.030;2023-04-24T12:30:31;100274.44;;;14.18
77728;BMP280;68312;53.502;10.030;2023-04-24T12:33:01;100276.69;;;13.98
77728;BMP280;68312;53.502;10.030;2023-04-24T12:35:29;100280.00;;;13.76
77728;BMP280;68312;53.502;10.030;2023-04-24T12:38:11;100282.97;;;13.56
77728;BMP280;68312;53.502;10.030;2023-04-24T12:40:38;100290.47;;;13.54
77728;BMP280;68312;53.502;10.030;2023-04-24T12:43:15;100285.66;;;13.41
77728;BMP280;68312;53.502;10.030;2023-04-24T12:45:43;100298.19;;;13.29
77728;BMP280;68312;53.502;10.030;2023-04-24T12:48:08;100297.06;;;13.14
77728;BMP280;68312;53.502;10.030;2023-04-24T12:50:34;100289.25;;;13.02
77728;BMP280;68312;53.502;10.030;2023-04-24T12:52:59;100307.81;;;12.91
77728;BMP280;68312;53.502;10.030;2023-04-24T12:55:25;100290.56;;;12.93
77728;BMP280;68312;53.502;10.030;2023-04-24T12:57:50;100308.19;;;12.77
77728;BMP280;68312;53.502;10.030;2023-04-24T13:00:16;100307.97;;;12.67
77728;BMP280;68312;53.502;10.030;2023-04-24T13:02:42;100303.47;;;12.68
77728;BMP280;68312;53.502;10.030;2023-04-24T13:05:08;100317.81;;;12.70
77728;BMP280;68312;53.502;10.030;2023-04-24T13:07:34;100312.44;;;12.67
77728;BMP280;68312;53.502;10.030;2023-04-24T13:09:59;100311.41;;;12.71
77728;BMP280;68312;53.502;10.030;2023-04-24T13:12:25;100310.91;;;12.66
77728;BMP280;68312;53.502;10.030;2023-04-24T13:14:51;100310.06;;;12.62
77728;BMP280;68312;53.502;10.030;2023-04-24T13:17:16;100310.22;;;12.53
77728;BMP280;68312;53.502;10.030;2023-04-24T13:19:43;100305.84;;;12.45
77728;BMP280;68312;53.502;10.030;2023-04-24T13:22:10;100317.41;;;12.41
77728;BMP280;68312;53.502;10.030;2023-04-24T13:24:38;100302.13;;;12.46
77728;BMP280;68312;53.502;10.030;2023-04-24T13:27:04;100305.41;;;12.44
77728;BMP280;68312;53.502;10.030;2023-04-24T13:29:30;100296.75;;;12.43
77728;BMP280;68312;53.502;10.030;2023-04-24T13:31:55;100296.59;;;12.51
77728;BMP280;68312;53.502;10.030;2023-04-24T13:34:23;100300.13;;;12.71
77728;BMP280;68312;53.502;10.030;2023-04-24T13:36:50;100304.47;;;12.78
77728;BMP280;68312;53.502;10.030;2023-04-24T13:39:19;100296.25;;;12.80
77728;BMP280;68312;53.502;10.030;2023-04-24T13:41:45;100298.44;;;12.78
77728;BMP280;68312;53.502;10.030;2023-04-24T13:44:10;100299.63;;;12.65
77728;BMP280;68312;53.502;10.030;2023-04-24T13:46:36;100299.41;;;12.58
77728;BMP280;68312;53.502;10.030;2023-04-24T13:49:02;100297.81;;;12.54
77728;BMP280;68312;53.502;10.030;2023-04-24T13:51:28;100299.50;;;12.46
77728;BMP280;68312;53.502;10.030;2023-04-24T13:53:53;100298.53;;;12.39
77728;BMP280;68312;53.502;10.030;2023-04-24T13:56:19;100300.41;;;12.39
77728;BMP280;68312;53.502;10.030;2023-04-24T13:58:45;100300.53;;;12.42
77728;BMP280;68312;53.502;10.030;2023-04-24T14:01:10;100296.88;;;12.46